Airfield :
LOGIN :

Register | Disclaimer

   EN    FR    IT 

 










Legend :    VFR   Marginal VFR   IFR   Intensive IFR   Very Intensive IFR
Visi :
Ceiling :
>= 8 km
>= 3000ft
5 to 8 km
1000 to 3000 ft
1500m to 5 km
500 to 1000 ft
800 to 1500m
200 to 500 ft
< 800m
< 200 ft
Symbols :   Thunderstorms  Fog  Heavy snow  Heavy precipitations  Wind > 20 kt
SIGMETs :     Misc.  Thunderstorms  Icing  Turbulence  Mountain Waves  Volcanic Ashes







- Airport Elevation : 82 ft
- IATA code : QIE
- Download approach charts


LFMI - Istres

CURRENT METAR :
  • 170200Z AUTO 30007KT 6000 -RA NSC 06/06 Q1017 BECMG 3000 BR

EXPIRED METARs :
  • 170130Z AUTO 30007KT 4400 BR NSC 06/06 Q1017 NOSIG
  • 170100Z AUTO 32007KT 4100 BR NSC 05/05 Q1016 NOSIG
  • 170030Z AUTO 31009KT 5000 BR NSC 06/06 Q1016 NOSIG
  • 170000Z AUTO 33010KT 5000 BR FEW004 OVC180 06/06 Q1016 NOSIG
  • 162330Z AUTO 30010KT 5000 BR BKN005 OVC180 07/07 Q1016 BECMG BKN022

TAF AMD TAF LFMI
Valid from the 16 at 21:00 until the 17 at 21:00 UTC


162112Z 1621/1721 VRB02KT 3000 BR BKN022
BECMG 1702/1703 34008KT
BECMG 1711/1713 33012G22KT
No reported NOTAMs for that airfield.
2 SIGMETs reported for the Marseille FIR (LFMM) :
 
Severe turbulence
LFMM SIGMET 4 VALID 170000/170400 LFPW
LFMM MARSEILLE FIR/UIR SEV TURB FCST S OF N4230 AND E OF E00830 SFC/FL100 STNR NC=
Severe turbulence
LFMM SIGMET 3 VALID 170000/170400 LFPW
LFMM MARSEILLE FIR/UIR SEV TURB FCST WI N4030 E00430 - N4200 E00430 - N4215 E00230 - N4330 E00245 - N4430 E00415 - N4130 E00615 - N4030 E00430 SFC/FL060 STNR NC=



MET'MAP, your aeronautical weather chart ! - Copyright ORBIFLY December 2007 - Disclaimer

ORBIFLY MET'MAP TEAM :

Programming & Development : Alexandra Zaïnal
Concept & Development : Baudouin d'Aumeries
Co-Development & Prog : Marc-Olivier Méhu
Technical & hardware support : Manuel Goepfert

Contact : metmap@orbifly.com




SOURCES & CREDITS :

   NOAA